sensor_id;sensor_type;location;lat;lon;timestamp;P1;durP1;ratioP1;P2;durP2;ratioP2
5349;SDS011;2697;42.144;24.794;2023-04-29T00:02:25;11.73;;;6.03;;
5349;SDS011;2697;42.144;24.794;2023-04-29T00:04:52;9.77;;;6.30;;
5349;SDS011;2697;42.144;24.794;2023-04-29T00:07:18;12.47;;;7.63;;
5349;SDS011;2697;42.144;24.794;2023-04-29T00:09:43;11.10;;;6.03;;
5349;SDS011;2697;42.144;24.794;2023-04-29T00:12:09;17.20;;;5.90;;
5349;SDS011;2697;42.144;24.794;2023-04-29T00:14:35;18.83;;;5.63;;
5349;SDS011;2697;42.144;24.794;2023-04-29T00:17:00;9.90;;;4.33;;
5349;SDS011;2697;42.144;24.794;2023-04-29T00:19:25;15.23;;;5.20;;
5349;SDS011;2697;42.144;24.794;2023-04-29T00:21:51;20.20;;;6.23;;
5349;SDS011;2697;42.144;24.794;2023-04-29T00:24:18;8.37;;;5.20;;
5349;SDS011;2697;42.144;24.794;2023-04-29T00:26:43;22.83;;;5.90;;
5349;SDS011;2697;42.144;24.794;2023-04-29T00:29:09;10.17;;;5.60;;
5349;SDS011;2697;42.144;24.794;2023-04-29T00:31:34;12.93;;;5.50;;
5349;SDS011;2697;42.144;24.794;2023-04-29T00:34:01;7.57;;;5.13;;
5349;SDS011;2697;42.144;24.794;2023-04-29T00:36:26;10.50;;;5.60;;
5349;SDS011;2697;42.144;24.794;2023-04-29T00:38:52;14.63;;;6.30;;
5349;SDS011;2697;42.144;24.794;2023-04-29T00:41:17;11.40;;;5.70;;
5349;SDS011;2697;42.144;24.794;2023-04-29T00:43:43;11.93;;;6.47;;
5349;SDS011;2697;42.144;24.794;2023-04-29T00:46:09;13.33;;;6.10;;
5349;SDS011;2697;42.144;24.794;2023-04-29T00:48:34;11.37;;;5.40;;
5349;SDS011;2697;42.144;24.794;2023-04-29T00:51:00;13.63;;;5.63;;
5349;SDS011;2697;42.144;24.794;2023-04-29T00:53:26;20.60;;;5.37;;
5349;SDS011;2697;42.144;24.794;2023-04-29T00:55:51;9.33;;;4.67;;
5349;SDS011;2697;42.144;24.794;2023-04-29T00:58:17;7.63;;;5.20;;
5349;SDS011;2697;42.144;24.794;2023-04-29T01:00:44;9.83;;;4.40;;
5349;SDS011;2697;42.144;24.794;2023-04-29T01:03:10;7.93;;;4.63;;
5349;SDS011;2697;42.144;24.794;2023-04-29T01:05:37;7.30;;;4.97;;
5349;SDS011;2697;42.144;24.794;2023-04-29T01:11:02;10.73;;;4.60;;
5349;SDS011;2697;42.144;24.794;2023-04-29T01:13:50;6.77;;;4.87;;
5349;SDS011;2697;42.144;24.794;2023-04-29T01:16:24;15.10;;;4.80;;
5349;SDS011;2697;42.144;24.794;2023-04-29T01:18:59;6.37;;;4.90;;
5349;SDS011;2697;42.144;24.794;2023-04-29T01:21:31;6.73;;;5.03;;
5349;SDS011;2697;42.144;24.794;2023-04-29T01:23:56;11.60;;;4.30;;
5349;SDS011;2697;42.144;24.794;2023-04-29T01:26:22;10.47;;;4.60;;
5349;SDS011;2697;42.144;24.794;2023-04-29T01:29:01;7.60;;;4.27;;
5349;SDS011;2697;42.144;24.794;2023-04-29T01:31:48;12.10;;;5.70;;
5349;SDS011;2697;42.144;24.794;2023-04-29T01:34:30;7.30;;;5.07;;
5349;SDS011;2697;42.144;24.794;2023-04-29T01:37:21;8.90;;;4.60;;
5349;SDS011;2697;42.144;24.794;2023-04-29T01:40:18;14.73;;;5.50;;
5349;SDS011;2697;42.144;24.794;2023-04-29T01:43:00;7.53;;;5.60;;
5349;SDS011;2697;42.144;24.794;2023-04-29T01:45:28;11.27;;;6.77;;
5349;SDS011;2697;42.144;24.794;2023-04-29T01:47:55;10.50;;;5.20;;
5349;SDS011;2697;42.144;24.794;2023-04-29T01:50:23;32.10;;;7.10;;
5349;SDS011;2697;42.144;24.794;2023-04-29T01:52:48;12.13;;;6.20;;
5349;SDS011;2697;42.144;24.794;2023-04-29T01:55:14;9.53;;;6.23;;
5349;SDS011;2697;42.144;24.794;2023-04-29T01:57:39;27.87;;;7.90;;
5349;SDS011;2697;42.144;24.794;2023-04-29T02:00:05;22.53;;;7.33;;
5349;SDS011;2697;42.144;24.794;2023-04-29T02:02:31;14.70;;;8.20;;
5349;SDS011;2697;42.144;24.794;2023-04-29T02:04:56;12.87;;;7.30;;
5349;SDS011;2697;42.144;24.794;2023-04-29T02:07:22;25.97;;;6.97;;
5349;SDS011;2697;42.144;24.794;2023-04-29T02:09:47;19.17;;;7.50;;
5349;SDS011;2697;42.144;24.794;2023-04-29T02:12:12;18.97;;;7.20;;
5349;SDS011;2697;42.144;24.794;2023-04-29T02:14:38;11.70;;;7.33;;
5349;SDS011;2697;42.144;24.794;2023-04-29T02:17:03;18.27;;;7.80;;
5349;SDS011;2697;42.144;24.794;2023-04-29T02:19:29;23.37;;;7.37;;
5349;SDS011;2697;42.144;24.794;2023-04-29T02:21:54;19.73;;;8.60;;
5349;SDS011;2697;42.144;24.794;2023-04-29T02:24:19;22.23;;;8.67;;
5349;SDS011;2697;42.144;24.794;2023-04-29T02:26:45;17.70;;;8.97;;
5349;SDS011;2697;42.144;24.794;2023-04-29T02:29:10;31.87;;;10.70;;
5349;SDS011;2697;42.144;24.794;2023-04-29T02:31:36;19.37;;;8.70;;
5349;SDS011;2697;42.144;24.794;2023-04-29T02:34:02;24.47;;;8.10;;
5349;SDS011;2697;42.144;24.794;2023-04-29T02:36:28;16.00;;;8.63;;
5349;SDS011;2697;42.144;24.794;2023-04-29T02:38:54;16.07;;;7.87;;
5349;SDS011;2697;42.144;24.794;2023-04-29T02:41:20;13.93;;;8.10;;
5349;SDS011;2697;42.144;24.794;2023-04-29T02:43:46;11.03;;;8.10;;
5349;SDS011;2697;42.144;24.794;2023-04-29T02:46:13;23.17;;;8.10;;
5349;SDS011;2697;42.144;24.794;2023-04-29T02:48:39;12.23;;;7.90;;
5349;SDS011;2697;42.144;24.794;2023-04-29T02:51:04;17.07;;;7.00;;
5349;SDS011;2697;42.144;24.794;2023-04-29T02:53:30;15.20;;;7.90;;
5349;SDS011;2697;42.144;24.794;2023-04-29T02:55:56;10.47;;;6.73;;
5349;SDS011;2697;42.144;24.794;2023-04-29T02:58:22;14.13;;;6.90;;
5349;SDS011;2697;42.144;24.794;2023-04-29T03:00:47;21.73;;;7.60;;
5349;SDS011;2697;42.144;24.794;2023-04-29T03:03:12;14.50;;;7.50;;
5349;SDS011;2697;42.144;24.794;2023-04-29T03:05:38;20.97;;;7.20;;
5349;SDS011;2697;42.144;24.794;2023-04-29T03:08:03;12.83;;;7.13;;
5349;SDS011;2697;42.144;24.794;2023-04-29T03:10:29;14.90;;;7.20;;
5349;SDS011;2697;42.144;24.794;2023-04-29T03:12:54;11.40;;;7.53;;
5349;SDS011;2697;42.144;24.794;2023-04-29T03:15:20;18.00;;;7.80;;
5349;SDS011;2697;42.144;24.794;2023-04-29T03:17:45;17.67;;;7.93;;
5349;SDS011;2697;42.144;24.794;2023-04-29T03:20:11;9.97;;;6.97;;
5349;SDS011;2697;42.144;24.794;2023-04-29T03:22:36;15.23;;;7.50;;
5349;SDS011;2697;42.144;24.794;2023-04-29T03:25:02;29.97;;;9.10;;
5349;SDS011;2697;42.144;24.794;2023-04-29T03:27:27;18.33;;;8.80;;
5349;SDS011;2697;42.144;24.794;2023-04-29T03:29:53;13.90;;;8.80;;
5349;SDS011;2697;42.144;24.794;2023-04-29T03:32:18;14.40;;;7.93;;
5349;SDS011;2697;42.144;24.794;2023-04-29T03:34:43;12.40;;;7.60;;
5349;SDS011;2697;42.144;24.794;2023-04-29T03:37:09;14.77;;;7.30;;
5349;SDS011;2697;42.144;24.794;2023-04-29T03:39:34;32.80;;;7.80;;
5349;SDS011;2697;42.144;24.794;2023-04-29T03:42:00;24.03;;;7.93;;
5349;SDS011;2697;42.144;24.794;2023-04-29T03:44:25;14.47;;;7.27;;
5349;SDS011;2697;42.144;24.794;2023-04-29T03:46:51;17.93;;;6.40;;
5349;SDS011;2697;42.144;24.794;2023-04-29T03:49:16;17.77;;;7.30;;
5349;SDS011;2697;42.144;24.794;2023-04-29T03:51:42;11.57;;;6.37;;
5349;SDS011;2697;42.144;24.794;2023-04-29T03:54:09;14.27;;;6.83;;
5349;SDS011;2697;42.144;24.794;2023-04-29T03:56:35;13.13;;;5.53;;
5349;SDS011;2697;42.144;24.794;2023-04-29T03:59:01;17.60;;;5.87;;
5349;SDS011;2697;42.144;24.794;2023-04-29T04:01:26;11.97;;;5.30;;
5349;SDS011;2697;42.144;24.794;2023-04-29T04:03:51;18.47;;;6.10;;
5349;SDS011;2697;42.144;24.794;2023-04-29T04:06:17;17.07;;;5.97;;
5349;SDS011;2697;42.144;24.794;2023-04-29T04:08:42;10.47;;;5.40;;
5349;SDS011;2697;42.144;24.794;2023-04-29T04:11:08;11.33;;;5.70;;
5349;SDS011;2697;42.144;24.794;2023-04-29T04:13:33;15.03;;;5.67;;
5349;SDS011;2697;42.144;24.794;2023-04-29T04:15:59;10.97;;;6.60;;
5349;SDS011;2697;42.144;24.794;2023-04-29T04:18:25;24.33;;;6.50;;
5349;SDS011;2697;42.144;24.794;2023-04-29T04:20:50;11.00;;;5.70;;
5349;SDS011;2697;42.144;24.794;2023-04-29T04:23:16;12.77;;;6.30;;
5349;SDS011;2697;42.144;24.794;2023-04-29T04:25:45;18.10;;;6.40;;
5349;SDS011;2697;42.144;24.794;2023-04-29T04:28:10;16.33;;;7.30;;
5349;SDS011;2697;42.144;24.794;2023-04-29T04:30:36;8.50;;;6.00;;
5349;SDS011;2697;42.144;24.794;2023-04-29T04:33:01;11.00;;;6.20;;
5349;SDS011;2697;42.144;24.794;2023-04-29T04:35:27;19.40;;;5.10;;
5349;SDS011;2697;42.144;24.794;2023-04-29T04:37:53;11.63;;;5.87;;
5349;SDS011;2697;42.144;24.794;2023-04-29T04:40:18;11.63;;;5.90;;
5349;SDS011;2697;42.144;24.794;2023-04-29T04:42:44;11.93;;;5.50;;
5349;SDS011;2697;42.144;24.794;2023-04-29T04:45:10;14.53;;;4.60;;
5349;SDS011;2697;42.144;24.794;2023-04-29T04:47:36;14.53;;;5.27;;
5349;SDS011;2697;42.144;24.794;2023-04-29T04:50:01;8.13;;;5.17;;
5349;SDS011;2697;42.144;24.794;2023-04-29T04:52:28;17.57;;;5.20;;
5349;SDS011;2697;42.144;24.794;2023-04-29T04:54:53;12.83;;;5.90;;
5349;SDS011;2697;42.144;24.794;2023-04-29T04:57:19;13.93;;;5.70;;
5349;SDS011;2697;42.144;24.794;2023-04-29T04:59:45;6.70;;;4.43;;
5349;SDS011;2697;42.144;24.794;2023-04-29T05:02:10;8.20;;;5.53;;
5349;SDS011;2697;42.144;24.794;2023-04-29T05:04:35;11.17;;;5.00;;
5349;SDS011;2697;42.144;24.794;2023-04-29T05:07:01;10.03;;;5.70;;
5349;SDS011;2697;42.144;24.794;2023-04-29T05:09:26;14.63;;;5.40;;
5349;SDS011;2697;42.144;24.794;2023-04-29T05:11:52;9.60;;;5.33;;
5349;SDS011;2697;42.144;24.794;2023-04-29T05:14:18;12.50;;;5.10;;
5349;SDS011;2697;42.144;24.794;2023-04-29T05:16:43;13.07;;;5.67;;
5349;SDS011;2697;42.144;24.794;2023-04-29T05:19:10;14.73;;;6.60;;
5349;SDS011;2697;42.144;24.794;2023-04-29T05:21:36;17.33;;;5.80;;
5349;SDS011;2697;42.144;24.794;2023-04-29T05:24:01;10.73;;;6.07;;
5349;SDS011;2697;42.144;24.794;2023-04-29T05:26:27;15.37;;;5.13;;
5349;SDS011;2697;42.144;24.794;2023-04-29T05:28:52;16.47;;;5.70;;
5349;SDS011;2697;42.144;24.794;2023-04-29T05:31:18;13.20;;;4.30;;
5349;SDS011;2697;42.144;24.794;2023-04-29T05:33:45;15.80;;;5.77;;
5349;SDS011;2697;42.144;24.794;2023-04-29T05:36:10;20.23;;;5.70;;
5349;SDS011;2697;42.144;24.794;2023-04-29T05:38:35;8.50;;;4.73;;
5349;SDS011;2697;42.144;24.794;2023-04-29T05:41:01;12.70;;;4.80;;
5349;SDS011;2697;42.144;24.794;2023-04-29T05:43:27;10.33;;;5.10;;
5349;SDS011;2697;42.144;24.794;2023-04-29T05:45:53;14.53;;;4.60;;
5349;SDS011;2697;42.144;24.794;2023-04-29T05:48:18;16.40;;;4.77;;
5349;SDS011;2697;42.144;24.794;2023-04-29T05:50:43;9.10;;;4.13;;
5349;SDS011;2697;42.144;24.794;2023-04-29T05:53:09;12.43;;;5.27;;
5349;SDS011;2697;42.144;24.794;2023-04-29T05:55:35;17.40;;;4.83;;
5349;SDS011;2697;42.144;24.794;2023-04-29T05:58:00;8.10;;;3.87;;
5349;SDS011;2697;42.144;24.794;2023-04-29T06:00:26;5.73;;;4.23;;
5349;SDS011;2697;42.144;24.794;2023-04-29T06:02:51;21.00;;;4.80;;
5349;SDS011;2697;42.144;24.794;2023-04-29T06:05:17;9.67;;;5.47;;
5349;SDS011;2697;42.144;24.794;2023-04-29T06:07:42;10.43;;;4.43;;
5349;SDS011;2697;42.144;24.794;2023-04-29T06:10:08;10.50;;;3.90;;
5349;SDS011;2697;42.144;24.794;2023-04-29T06:12:34;10.70;;;4.93;;
5349;SDS011;2697;42.144;24.794;2023-04-29T06:15:00;9.37;;;4.30;;
5349;SDS011;2697;42.144;24.794;2023-04-29T06:17:26;12.90;;;4.40;;
5349;SDS011;2697;42.144;24.794;2023-04-29T06:19:53;5.87;;;3.83;;
5349;SDS011;2697;42.144;24.794;2023-04-29T06:22:19;6.40;;;3.80;;
5349;SDS011;2697;42.144;24.794;2023-04-29T06:24:45;5.60;;;3.97;;
5349;SDS011;2697;42.144;24.794;2023-04-29T06:27:11;5.37;;;3.37;;
5349;SDS011;2697;42.144;24.794;2023-04-29T06:29:36;19.33;;;4.97;;
5349;SDS011;2697;42.144;24.794;2023-04-29T06:32:02;7.97;;;3.70;;
5349;SDS011;2697;42.144;24.794;2023-04-29T06:34:27;12.27;;;3.80;;
5349;SDS011;2697;42.144;24.794;2023-04-29T06:36:52;5.40;;;3.70;;
5349;SDS011;2697;42.144;24.794;2023-04-29T06:39:18;9.33;;;4.60;;
5349;SDS011;2697;42.144;24.794;2023-04-29T06:41:43;14.20;;;4.50;;
5349;SDS011;2697;42.144;24.794;2023-04-29T06:44:09;7.63;;;4.10;;
5349;SDS011;2697;42.144;24.794;2023-04-29T06:46:34;11.87;;;4.37;;
5349;SDS011;2697;42.144;24.794;2023-04-29T06:48:59;14.63;;;5.80;;
5349;SDS011;2697;42.144;24.794;2023-04-29T06:51:25;11.57;;;4.10;;
5349;SDS011;2697;42.144;24.794;2023-04-29T06:53:52;9.60;;;4.00;;
5349;SDS011;2697;42.144;24.794;2023-04-29T06:56:17;9.63;;;4.47;;
5349;SDS011;2697;42.144;24.794;2023-04-29T06:58:43;12.53;;;4.63;;
5349;SDS011;2697;42.144;24.794;2023-04-29T07:01:08;11.57;;;5.23;;
5349;SDS011;2697;42.144;24.794;2023-04-29T07:03:34;6.03;;;3.97;;
5349;SDS011;2697;42.144;24.794;2023-04-29T07:06:00;22.03;;;3.60;;
5349;SDS011;2697;42.144;24.794;2023-04-29T07:08:25;10.07;;;3.93;;
5349;SDS011;2697;42.144;24.794;2023-04-29T07:10:53;9.40;;;4.27;;
5349;SDS011;2697;42.144;24.794;2023-04-29T07:13:21;8.33;;;4.60;;
5349;SDS011;2697;42.144;24.794;2023-04-29T07:15:47;7.27;;;4.30;;
5349;SDS011;2697;42.144;24.794;2023-04-29T07:18:13;8.50;;;4.47;;
5349;SDS011;2697;42.144;24.794;2023-04-29T07:20:38;10.13;;;4.17;;
5349;SDS011;2697;42.144;24.794;2023-04-29T07:23:03;9.30;;;4.47;;
5349;SDS011;2697;42.144;24.794;2023-04-29T07:25:29;12.13;;;5.30;;
5349;SDS011;2697;42.144;24.794;2023-04-29T07:27:54;8.10;;;3.90;;
5349;SDS011;2697;42.144;24.794;2023-04-29T07:30:21;12.53;;;4.20;;
5349;SDS011;2697;42.144;24.794;2023-04-29T07:32:47;7.27;;;4.60;;
5349;SDS011;2697;42.144;24.794;2023-04-29T07:35:13;9.63;;;5.03;;
5349;SDS011;2697;42.144;24.794;2023-04-29T07:37:38;9.43;;;4.03;;
5349;SDS011;2697;42.144;24.794;2023-04-29T07:40:05;12.57;;;4.97;;
5349;SDS011;2697;42.144;24.794;2023-04-29T07:42:31;9.63;;;5.60;;
5349;SDS011;2697;42.144;24.794;2023-04-29T07:44:56;9.60;;;4.97;;
5349;SDS011;2697;42.144;24.794;2023-04-29T07:47:22;12.00;;;4.77;;
5349;SDS011;2697;42.144;24.794;2023-04-29T07:49:48;10.50;;;4.40;;
5349;SDS011;2697;42.144;24.794;2023-04-29T07:52:13;9.83;;;4.63;;
5349;SDS011;2697;42.144;24.794;2023-04-29T07:54:38;9.10;;;4.90;;
5349;SDS011;2697;42.144;24.794;2023-04-29T07:57:04;13.00;;;4.27;;
5349;SDS011;2697;42.144;24.794;2023-04-29T07:59:30;13.93;;;4.53;;
5349;SDS011;2697;42.144;24.794;2023-04-29T08:01:55;10.77;;;5.30;;
5349;SDS011;2697;42.144;24.794;2023-04-29T08:04:21;6.20;;;3.93;;
5349;SDS011;2697;42.144;24.794;2023-04-29T08:06:47;13.77;;;5.00;;
5349;SDS011;2697;42.144;24.794;2023-04-29T08:09:13;10.83;;;3.77;;
5349;SDS011;2697;42.144;24.794;2023-04-29T08:11:38;6.97;;;4.37;;
5349;SDS011;2697;42.144;24.794;2023-04-29T08:14:04;7.73;;;4.27;;
5349;SDS011;2697;42.144;24.794;2023-04-29T08:16:30;11.43;;;4.97;;
5349;SDS011;2697;42.144;24.794;2023-04-29T08:18:55;8.87;;;3.60;;
5349;SDS011;2697;42.144;24.794;2023-04-29T08:21:21;20.40;;;5.17;;
5349;SDS011;2697;42.144;24.794;2023-04-29T08:23:47;15.50;;;5.10;;
5349;SDS011;2697;42.144;24.794;2023-04-29T08:26:12;13.53;;;4.10;;
5349;SDS011;2697;42.144;24.794;2023-04-29T08:28:38;14.00;;;4.10;;
5349;SDS011;2697;42.144;24.794;2023-04-29T08:31:05;11.60;;;3.57;;
5349;SDS011;2697;42.144;24.794;2023-04-29T08:33:37;25.07;;;4.57;;
5349;SDS011;2697;42.144;24.794;2023-04-29T08:36:03;7.10;;;4.13;;
5349;SDS011;2697;42.144;24.794;2023-04-29T08:38:29;12.93;;;3.97;;
5349;SDS011;2697;42.144;24.794;2023-04-29T08:40:55;8.37;;;4.30;;
5349;SDS011;2697;42.144;24.794;2023-04-29T08:43:21;6.00;;;4.07;;
5349;SDS011;2697;42.144;24.794;2023-04-29T08:45:49;9.43;;;5.13;;
5349;SDS011;2697;42.144;24.794;2023-04-29T08:48:16;11.73;;;4.33;;
5349;SDS011;2697;42.144;24.794;2023-04-29T08:50:41;12.00;;;4.87;;
5349;SDS011;2697;42.144;24.794;2023-04-29T08:53:08;15.43;;;4.50;;
5349;SDS011;2697;42.144;24.794;2023-04-29T08:55:35;6.87;;;3.70;;
5349;SDS011;2697;42.144;24.794;2023-04-29T08:58:05;11.40;;;4.00;;
5349;SDS011;2697;42.144;24.794;2023-04-29T09:00:31;6.67;;;4.00;;
5349;SDS011;2697;42.144;24.794;2023-04-29T09:02:59;5.30;;;3.17;;
5349;SDS011;2697;42.144;24.794;2023-04-29T09:05:25;11.70;;;4.30;;
5349;SDS011;2697;42.144;24.794;2023-04-29T09:07:51;8.97;;;4.63;;
5349;SDS011;2697;42.144;24.794;2023-04-29T09:10:17;9.40;;;4.37;;
5349;SDS011;2697;42.144;24.794;2023-04-29T09:12:43;17.80;;;4.23;;
5349;SDS011;2697;42.144;24.794;2023-04-29T09:15:10;11.63;;;4.03;;
5349;SDS011;2697;42.144;24.794;2023-04-29T09:25:14;9.43;;;4.07;;
5349;SDS011;2697;42.144;24.794;2023-04-29T09:27:39;6.40;;;3.80;;
5349;SDS011;2697;42.144;24.794;2023-04-29T09:30:05;7.70;;;3.70;;
5349;SDS011;2697;42.144;24.794;2023-04-29T09:32:31;16.80;;;3.53;;
5349;SDS011;2697;42.144;24.794;2023-04-29T09:34:56;9.80;;;3.67;;
5349;SDS011;2697;42.144;24.794;2023-04-29T09:37:22;6.17;;;3.07;;
5349;SDS011;2697;42.144;24.794;2023-04-29T09:39:50;8.30;;;3.63;;
5349;SDS011;2697;42.144;24.794;2023-04-29T09:42:15;5.33;;;2.63;;
5349;SDS011;2697;42.144;24.794;2023-04-29T09:44:41;3.80;;;2.67;;
5349;SDS011;2697;42.144;24.794;2023-04-29T09:47:08;5.77;;;3.43;;
5349;SDS011;2697;42.144;24.794;2023-04-29T09:52:03;9.50;;;3.97;;
5349;SDS011;2697;42.144;24.794;2023-04-29T09:54:30;6.47;;;4.30;;
5349;SDS011;2697;42.144;24.794;2023-04-29T09:57:00;9.23;;;2.93;;
5349;SDS011;2697;42.144;24.794;2023-04-29T09:59:30;9.10;;;3.47;;
5349;SDS011;2697;42.144;24.794;2023-04-29T10:01:57;8.20;;;3.33;;
5349;SDS011;2697;42.144;24.794;2023-04-29T10:04:23;4.27;;;3.10;;
5349;SDS011;2697;42.144;24.794;2023-04-29T10:06:51;4.50;;;3.13;;
5349;SDS011;2697;42.144;24.794;2023-04-29T10:09:18;5.80;;;3.10;;
5349;SDS011;2697;42.144;24.794;2023-04-29T10:11:44;5.67;;;3.57;;
5349;SDS011;2697;42.144;24.794;2023-04-29T10:14:11;14.43;;;3.23;;
5349;SDS011;2697;42.144;24.794;2023-04-29T10:16:45;6.43;;;3.00;;
5349;SDS011;2697;42.144;24.794;2023-04-29T10:22:11;27.60;;;3.90;;
5349;SDS011;2697;42.144;24.794;2023-04-29T10:24:43;12.47;;;3.40;;
5349;SDS011;2697;42.144;24.794;2023-04-29T10:27:10;8.03;;;3.90;;
5349;SDS011;2697;42.144;24.794;2023-04-29T10:29:38;11.10;;;3.53;;
5349;SDS011;2697;42.144;24.794;2023-04-29T10:32:08;8.57;;;3.63;;
5349;SDS011;2697;42.144;24.794;2023-04-29T10:34:37;6.37;;;2.83;;
5349;SDS011;2697;42.144;24.794;2023-04-29T10:37:14;4.90;;;2.80;;
5349;SDS011;2697;42.144;24.794;2023-04-29T10:39:42;4.87;;;2.70;;
5349;SDS011;2697;42.144;24.794;2023-04-29T10:42:25;7.73;;;2.90;;
5349;SDS011;2697;42.144;24.794;2023-04-29T10:53:09;3.90;;;2.47;;
5349;SDS011;2697;42.144;24.794;2023-04-29T10:55:35;11.00;;;3.90;;
5349;SDS011;2697;42.144;24.794;2023-04-29T10:58:04;5.23;;;2.53;;
5349;SDS011;2697;42.144;24.794;2023-04-29T11:00:33;4.93;;;2.90;;
5349;SDS011;2697;42.144;24.794;2023-04-29T11:03:04;7.30;;;3.07;;
5349;SDS011;2697;42.144;24.794;2023-04-29T11:05:33;6.90;;;3.10;;
5349;SDS011;2697;42.144;24.794;2023-04-29T11:10:51;6.23;;;3.37;;
5349;SDS011;2697;42.144;24.794;2023-04-29T11:13:27;11.13;;;2.70;;
5349;SDS011;2697;42.144;24.794;2023-04-29T11:16:10;4.27;;;3.00;;
5349;SDS011;2697;42.144;24.794;2023-04-29T11:18:36;7.00;;;3.10;;
5349;SDS011;2697;42.144;24.794;2023-04-29T11:21:35;7.90;;;2.97;;
5349;SDS011;2697;42.144;24.794;2023-04-29T11:24:01;3.43;;;3.10;;
5349;SDS011;2697;42.144;24.794;2023-04-29T11:26:28;8.67;;;3.37;;
5349;SDS011;2697;42.144;24.794;2023-04-29T11:28:53;7.00;;;2.70;;
5349;SDS011;2697;42.144;24.794;2023-04-29T11:31:20;11.33;;;3.47;;
5349;SDS011;2697;42.144;24.794;2023-04-29T11:33:52;6.30;;;2.87;;
5349;SDS011;2697;42.144;24.794;2023-04-29T11:36:18;9.00;;;3.00;;
5349;SDS011;2697;42.144;24.794;2023-04-29T11:38:43;23.23;;;6.03;;
5349;SDS011;2697;42.144;24.794;2023-04-29T11:41:10;7.93;;;3.00;;
5349;SDS011;2697;42.144;24.794;2023-04-29T11:43:35;11.70;;;2.90;;
5349;SDS011;2697;42.144;24.794;2023-04-29T11:46:10;9.23;;;3.67;;
5349;SDS011;2697;42.144;24.794;2023-04-29T11:48:37;8.57;;;3.10;;
5349;SDS011;2697;42.144;24.794;2023-04-29T11:51:12;3.90;;;2.60;;
5349;SDS011;2697;42.144;24.794;2023-04-29T11:53:39;9.70;;;3.60;;
5349;SDS011;2697;42.144;24.794;2023-04-29T11:56:05;11.20;;;2.93;;
5349;SDS011;2697;42.144;24.794;2023-04-29T11:58:32;9.23;;;3.27;;
5349;SDS011;2697;42.144;24.794;2023-04-29T12:00:58;7.53;;;2.70;;
5349;SDS011;2697;42.144;24.794;2023-04-29T12:03:25;5.83;;;3.20;;
5349;SDS011;2697;42.144;24.794;2023-04-29T12:05:50;6.63;;;2.07;;
5349;SDS011;2697;42.144;24.794;2023-04-29T12:08:20;14.50;;;3.30;;
5349;SDS011;2697;42.144;24.794;2023-04-29T12:10:50;5.57;;;2.87;;
5349;SDS011;2697;42.144;24.794;2023-04-29T12:13:17;9.80;;;2.40;;
5349;SDS011;2697;42.144;24.794;2023-04-29T12:15:43;4.10;;;2.40;;
5349;SDS011;2697;42.144;24.794;2023-04-29T12:18:10;6.60;;;3.30;;
5349;SDS011;2697;42.144;24.794;2023-04-29T12:20:36;6.00;;;2.23;;
5349;SDS011;2697;42.144;24.794;2023-04-29T12:23:21;4.43;;;2.03;;
5349;SDS011;2697;42.144;24.794;2023-04-29T12:25:51;6.50;;;2.97;;
5349;SDS011;2697;42.144;24.794;2023-04-29T12:28:18;4.07;;;2.40;;
5349;SDS011;2697;42.144;24.794;2023-04-29T12:30:47;4.90;;;2.47;;
5349;SDS011;2697;42.144;24.794;2023-04-29T12:33:21;4.60;;;2.80;;
5349;SDS011;2697;42.144;24.794;2023-04-29T12:35:51;5.30;;;3.07;;
5349;SDS011;2697;42.144;24.794;2023-04-29T12:38:21;4.80;;;2.97;;
5349;SDS011;2697;42.144;24.794;2023-04-29T12:40:48;3.40;;;2.47;;
5349;SDS011;2697;42.144;24.794;2023-04-29T12:43:15;11.73;;;4.00;;
5349;SDS011;2697;42.144;24.794;2023-04-29T12:45:40;9.47;;;3.63;;
5349;SDS011;2697;42.144;24.794;2023-04-29T12:48:06;6.00;;;3.17;;
5349;SDS011;2697;42.144;24.794;2023-04-29T12:50:33;5.20;;;3.20;;
5349;SDS011;2697;42.144;24.794;2023-04-29T12:53:02;6.60;;;3.10;;
5349;SDS011;2697;42.144;24.794;2023-04-29T12:55:28;11.40;;;3.00;;
5349;SDS011;2697;42.144;24.794;2023-04-29T12:57:56;13.00;;;3.30;;
5349;SDS011;2697;42.144;24.794;2023-04-29T13:00:21;3.03;;;2.33;;
5349;SDS011;2697;42.144;24.794;2023-04-29T13:02:47;8.43;;;2.90;;
5349;SDS011;2697;42.144;24.794;2023-04-29T13:05:12;5.60;;;2.17;;
5349;SDS011;2697;42.144;24.794;2023-04-29T13:07:38;7.60;;;2.43;;
5349;SDS011;2697;42.144;24.794;2023-04-29T13:10:04;7.47;;;3.47;;
5349;SDS011;2697;42.144;24.794;2023-04-29T13:12:31;8.60;;;2.97;;
5349;SDS011;2697;42.144;24.794;2023-04-29T13:14:56;8.10;;;2.67;;
5349;SDS011;2697;42.144;24.794;2023-04-29T13:17:22;7.33;;;2.77;;
5349;SDS011;2697;42.144;24.794;2023-04-29T13:19:47;5.37;;;2.93;;
5349;SDS011;2697;42.144;24.794;2023-04-29T13:22:13;6.63;;;2.57;;
5349;SDS011;2697;42.144;24.794;2023-04-29T13:24:38;7.87;;;2.70;;
5349;SDS011;2697;42.144;24.794;2023-04-29T13:27:04;8.50;;;3.30;;
5349;SDS011;2697;42.144;24.794;2023-04-29T13:29:29;6.00;;;3.03;;
5349;SDS011;2697;42.144;24.794;2023-04-29T13:31:55;4.17;;;2.40;;
5349;SDS011;2697;42.144;24.794;2023-04-29T13:34:20;6.13;;;2.43;;
5349;SDS011;2697;42.144;24.794;2023-04-29T13:36:46;10.80;;;2.30;;
5349;SDS011;2697;42.144;24.794;2023-04-29T13:39:11;6.20;;;2.90;;
5349;SDS011;2697;42.144;24.794;2023-04-29T13:41:37;4.03;;;2.60;;
5349;SDS011;2697;42.144;24.794;2023-04-29T13:44:02;5.20;;;2.60;;
5349;SDS011;2697;42.144;24.794;2023-04-29T13:46:28;8.93;;;2.70;;
5349;SDS011;2697;42.144;24.794;2023-04-29T13:48:53;12.80;;;2.43;;
5349;SDS011;2697;42.144;24.794;2023-04-29T13:51:19;10.40;;;3.03;;
5349;SDS011;2697;42.144;24.794;2023-04-29T13:53:44;3.93;;;2.33;;
5349;SDS011;2697;42.144;24.794;2023-04-29T13:56:09;6.43;;;2.27;;
5349;SDS011;2697;42.144;24.794;2023-04-29T13:58:35;2.33;;;2.00;;
5349;SDS011;2697;42.144;24.794;2023-04-29T14:01:00;6.23;;;2.23;;
5349;SDS011;2697;42.144;24.794;2023-04-29T14:03:26;6.13;;;2.30;;
5349;SDS011;2697;42.144;24.794;2023-04-29T14:05:52;10.60;;;2.90;;
5349;SDS011;2697;42.144;24.794;2023-04-29T14:08:17;6.40;;;2.33;;
5349;SDS011;2697;42.144;24.794;2023-04-29T14:10:43;3.10;;;2.07;;
5349;SDS011;2697;42.144;24.794;2023-04-29T14:13:08;4.80;;;2.77;;
5349;SDS011;2697;42.144;24.794;2023-04-29T14:15:33;3.00;;;1.67;;
5349;SDS011;2697;42.144;24.794;2023-04-29T14:17:59;6.20;;;2.30;;
5349;SDS011;2697;42.144;24.794;2023-04-29T14:20:24;4.03;;;2.23;;
5349;SDS011;2697;42.144;24.794;2023-04-29T14:22:50;11.17;;;3.10;;
5349;SDS011;2697;42.144;24.794;2023-04-29T14:25:15;4.13;;;2.20;;
5349;SDS011;2697;42.144;24.794;2023-04-29T14:27:40;8.47;;;2.43;;
5349;SDS011;2697;42.144;24.794;2023-04-29T14:30:06;6.13;;;2.00;;
5349;SDS011;2697;42.144;24.794;2023-04-29T14:32:32;2.97;;;2.00;;
5349;SDS011;2697;42.144;24.794;2023-04-29T14:34:58;7.00;;;1.87;;
5349;SDS011;2697;42.144;24.794;2023-04-29T14:37:23;9.00;;;2.43;;
5349;SDS011;2697;42.144;24.794;2023-04-29T14:39:49;8.33;;;2.13;;
5349;SDS011;2697;42.144;24.794;2023-04-29T14:42:14;6.63;;;2.90;;
5349;SDS011;2697;42.144;24.794;2023-04-29T14:44:39;5.10;;;3.00;;
5349;SDS011;2697;42.144;24.794;2023-04-29T14:47:05;3.20;;;2.10;;
5349;SDS011;2697;42.144;24.794;2023-04-29T14:49:30;5.37;;;2.20;;
5349;SDS011;2697;42.144;24.794;2023-04-29T14:51:55;4.10;;;2.53;;
5349;SDS011;2697;42.144;24.794;2023-04-29T14:54:21;7.27;;;2.20;;
5349;SDS011;2697;42.144;24.794;2023-04-29T14:56:46;4.13;;;2.33;;
5349;SDS011;2697;42.144;24.794;2023-04-29T14:59:13;2.93;;;1.93;;
5349;SDS011;2697;42.144;24.794;2023-04-29T15:01:38;3.47;;;2.10;;
5349;SDS011;2697;42.144;24.794;2023-04-29T15:04:04;14.13;;;2.17;;
5349;SDS011;2697;42.144;24.794;2023-04-29T15:06:32;3.67;;;1.97;;
5349;SDS011;2697;42.144;24.794;2023-04-29T15:08:59;3.67;;;2.10;;
5349;SDS011;2697;42.144;24.794;2023-04-29T15:11:24;13.90;;;2.77;;
5349;SDS011;2697;42.144;24.794;2023-04-29T15:13:50;3.10;;;1.87;;
5349;SDS011;2697;42.144;24.794;2023-04-29T15:16:15;6.60;;;2.90;;
5349;SDS011;2697;42.144;24.794;2023-04-29T15:18:41;5.37;;;2.10;;
5349;SDS011;2697;42.144;24.794;2023-04-29T15:21:06;4.40;;;2.00;;